Flight Track Log - Related Links

Times and Time Zones

All times are in EDT time to prevent confusion due to time zone crossing. See the SKW4466 flight status page for this flight to view local times or setup timezone preferences in your user account.

Time Position Orientation Groundspeed Altitude Reporting Facility
EDT Latitude Longitude Course Direction KTS MPH feet Rate Location/Type
09:22PM 33.9336 -118.4397 59° Northeast 170 196 29,000  Level Los Angeles Center
09:23PM 33.9167 -118.5036 252° West 207 238 3,600 -10,790 Descending Los Angeles Center
09:24PM 33.8636 -118.5239 198° South 241 277 6,700 2,903 Climbing Los Angeles Center
09:25PM 34.1739 -117.9856 59° Northeast  Level FlightAware Approximate
09:25PM 33.8900 -118.4553 65° Northeast 266 306 9,600  Level Los Angeles Center
09:26PM 34.2305 -117.8723 59° Northeast  Level FlightAware Approximate
09:26PM 33.9544 -118.3978 36° Northeast 285 328 12,000  Level Los Angeles Center
09:27PM 34.2872 -117.7757 59° Northeast  Level FlightAware Approximate
09:27PM 34.0044 -118.3086 56° Northeast 316 364 13,900  Level Los Angeles Center
09:28PM 34.0625 -118.2050 56° Northeast 363 418 15,400 1,440 Climbing Los Angeles Center
09:29PM 34.1264 -118.0928 55° Northeast 399 459 16,900 1,694 Climbing Los Angeles Center
09:30PM 34.1931 -117.9739 56° Northeast 422 486 18,900 1,935 Climbing Los Angeles Center
09:31PM 34.2606 -117.8547 56° Northeast 425 489 20,900 1,935 Climbing Los Angeles Center
09:32PM 34.3286 -117.7328 56° Northeast 434 499 22,900 2,032 Climbing Los Angeles Center
09:33PM 34.4008 -117.6039 56° Northeast 435 501 25,100 1,887 Climbing Los Angeles Center
09:35PM 34.4703 -117.4875 54° Northeast 434 499 26,800 1,645 Climbing Los Angeles Center
09:36PM 34.5528 -117.3450 55° Northeast 433 498 28,500 1,065 Climbing Los Angeles Center
09:37PM 34.6253 -117.2211 55° Northeast 448 516 29,000 242 Climbing Los Angeles Center
09:38PM 34.7017 -117.0906 55° Northeast 473 544 29,000  Level Los Angeles Center
09:39PM 34.7792 -116.9603 54° Northeast 476 548 29,000  Level Los Angeles Center
09:40PM 34.8706 -116.8011 55° Northeast 478 550 29,000 -384 Level Los Angeles Center
09:41PM 34.9467 -116.6700 55° Northeast 478 550 28,200 -1,161 Descending Los Angeles Center
09:42PM 35.0228 -116.5419 54° Northeast 473 544 26,600 -1,742 Descending Los Angeles Center
09:43PM 35.0917 -116.4203 55° Northeast 449 517 24,600 -1,306 Descending Los Angeles Center
09:44PM 35.1764 -116.3075 47° Northeast 452 520 23,900 -1,306 Descending Los Angeles Center
09:45PM 35.2661 -116.1956 46° Northeast 458 527 21,900 -2,177 Descending Los Angeles Center
09:46PM 35.3700 -116.0625 46° Northeast 455 524 19,400 -2,274 Descending Los Angeles Center
09:47PM 35.4533 -115.9558 46° Northeast 442 509 17,200 -2,219 Descending Los Angeles Center
09:47PM 35.4611 -115.9519 22° Northeast 444 511 16,700 -2,914 Descending Los Angeles Center
09:48PM 35.5108 -115.8914 45° Northeast 438 504 15,500 -2,235 Descending Los Angeles Center
09:48PM 35.5394 -115.8461 52° Northeast 431 496 14,800 -1,967 Descending Los Angeles Center
09:49PM 35.5889 -115.7925 41° Northeast 402 463 13,500 -1,714 Descending Los Angeles Center
09:49PM 35.6172 -115.7511 50° Northeast 405 466 13,000 -764 Descending Los Angeles Center
09:49PM 35.6586 -115.7150 35° Northeast 346 398 12,800 -484 Descending Los Angeles Center
09:50PM 35.6911 -115.6831 39° Northeast 340 391 12,500 -716 Descending Los Angeles Center
09:51PM 35.7350 -115.6481 33° Northeast 297 342 12,000 -484 Descending Los Angeles Center
09:51PM 35.7700 -115.6117 40° Northeast 312 359 12,000  Level Los Angeles Center
09:52PM 35.8036 -115.5861 32° Northeast 304 350 12,000  Level Los Angeles Center
09:52PM 35.8406 -115.5475 40° Northeast 315 362 12,000  Level Los Angeles Center
09:53PM 35.8772 -115.5172 34° Northeast 314 361 12,000  Level Los Angeles Center
09:53PM 35.9142 -115.4808 39° Northeast 307 353 12,000 -98 Level Los Angeles Center
09:54PM 35.9456 -115.4528 36° Northeast 306 352 11,900 -677 Descending Los Angeles Center
09:54PM 35.9817 -115.4197 37° Northeast 305 351 11,300 -806 Descending Los Angeles Center
09:55PM 36.0142 -115.3906 36° Northeast 286 329 11,000 -290 Descending Los Angeles Center
09:55PM 36.0283 -115.3414 70° East 278 320 11,000 -590 Level Los Angeles Center
09:56PM 36.0247 -115.2994 96° East 272 313 10,400 -1,452 Descending Los Angeles Center
09:56PM 36.0214 -115.2475 95° East 276 318 9,500 -1,500 Descending Los Angeles Center
09:57PM 36.0178 -115.1981 95° East 277 319 8,900 -968 Descending Los Angeles Center
09:57PM 36.0158 -115.1500 93° East 267 307 8,500 -655 Descending Los Angeles Center
09:58PM 36.0122 -115.1228 99° East 222 255 8,300 -476 Descending Los Angeles Center
09:58PM 36.0106 -115.0794 93° East 214 246 8,000 -627 Descending Los Angeles Center
09:59PM 36.0092 -115.0494 93° East 196 226 7,600 -1,355 Descending Los Angeles Center
09:59PM 36.0064 -115.0056 94° East 205 236 6,600 -1,672 Descending Los Angeles Center
10:00PM 36.0092 -114.9803 82° East 206 237 5,900 -1,645 Descending Los Angeles Center
10:00PM 36.0431 -114.9619 24° Northeast 224 258 4,900 -1,556 Descending Los Angeles Center
10:01PM 36.0600 -114.9658 349° North 228 262 4,500 -1,065 Descending Los Angeles Center
10:01PM 36.0786 -115.0039 301° West 199 229 3,800 -806 Descending Los Angeles Center
10:02PM 36.0756 -115.0272 261° West 176 203 3,600 -774 Descending Los Angeles Center
10:02PM 36.0742 -115.0625 267° West 174 200 3,000 -885 Descending Los Angeles Center
10:03PM 36.0744 -115.0808 271° West 149 171 2,700 -774 Descending Los Angeles Center
10:04PM 36.0733 -115.1172 268° West 153 176 2,200 -732 Descending Los Angeles Center

Login

Don't have an account? Register now (free) for customized features, flight alerts, and more!